Flight Track Log - Related Links

Times and Time Zones

All times are in EDT time to prevent confusion due to time zone crossing. See the N40GS flight status page for this flight to view local times or setup timezone preferences in your user account.

Time Position Orientation Groundspeed Altitude Reporting Facility
EDT Latitude Longitude Course Direction KTS MPH feet Rate Location/Type
Sun 08:35:23 PM 42.4000 -71.3500 200° South 239 275 4,300  Level KA90
Sun 08:36:29 PM 42.3333 -71.3000 151° Southeast 254 292 7,900 2,350 Climbing KA90
Sun 08:37:23 PM 42.3000 -71.2167 118° Southeast 283 326 9,000 895 Climbing KA90
Sun 08:38:23 PM 42.2500 -71.1333 129° Southeast 296 341 9,600 1,955 Climbing KA90
Sun 08:39:35 PM 42.2039 -71.0078 116° Southeast 346 398 13,300 2,000 Climbing Boston Center
Sun 08:40:35 PM 42.1608 -70.9025 119° Southeast 335 386 14,000 350 Climbing Boston Center
Sun 08:41:35 PM 42.1117 -70.8225 130° Southeast 330 380 14,000 550 Level Boston Center
Sun 08:42:35 PM 42.0175 -70.7914 166° South 310 357 15,100 1,750 Climbing Boston Center
Sun 08:43:35 PM 41.9214 -70.7717 171° South 328 377 17,500 2,050 Climbing Boston Center
Sun 08:44:35 PM 41.8233 -70.7686 179° South 343 395 19,200 1,900 Climbing Boston Center
Sun 08:45:35 PM 41.7383 -70.8097 200° South 343 395 21,300 2,100 Climbing Boston Center
Sun 08:46:35 PM 41.6622 -70.8811 215° Southwest 324 373 23,400 1,950 Climbing Boston Center
Sun 08:47:35 PM 41.5819 -70.9442 210° Southwest 324 373 25,200 1,700 Climbing Boston Center
Sun 08:48:35 PM 41.5142 -71.0261 222° Southwest 330 380 26,800 1,650 Climbing Boston Center
Sun 08:49:35 PM 41.4550 -71.1244 231° Southwest 330 380 28,500 1,500 Climbing Boston Center
Sun 08:50:35 PM 41.3956 -71.2197 230° Southwest 336 387 29,800 750 Climbing Boston Center
Sun 08:51:35 PM 41.3342 -71.3206 231° Southwest 342 394 30,000 100 Climbing Boston Center
Sun 08:52:35 PM 41.2806 -71.4069 230° Southwest 357 411 30,000  Level Boston Center
Sun 08:53:35 PM 41.1983 -71.5381 230° Southwest 381 438 30,000  Level Boston Center
Sun 08:54:35 PM 41.1389 -71.6436 233° Southwest 381 438 30,000  Level Boston Center
Sun 08:55:47 PM 41.0981 -71.7736 247° West 375 432 30,000  Level Boston Center
Sun 08:56:47 PM 41.0489 -71.9364 248° West 385 443 30,000  Level Boston Center
Sun 08:57:47 PM 41.0056 -72.0633 246° West 391 450 30,000  Level Boston Center
Sun 08:58:47 PM 40.9622 -72.1900 246° West 391 450 30,000  Level Boston Center
Sun 08:59:47 PM 40.9144 -72.3164 243° Southwest 391 450 30,000  Level Boston Center
Sun 09:00:47 PM 40.8353 -72.4181 224° Southwest 384 442 30,000  Level Boston Center
Sun 09:01:47 PM 40.7539 -72.5114 221° Southwest 389 448 30,000  Level Boston Center
Sun 09:02:47 PM 40.6686 -72.6042 220° Southwest 389 448 30,000  Level Boston Center
Sun 09:03:47 PM 40.5892 -72.6969 222° Southwest 394 453 30,000  Level Boston Center
Sun 09:04:47 PM 40.5014 -72.7922 220° Southwest 399 459 30,000  Level Boston Center
Sun 09:05:59 PM 40.4219 -72.8872 222° Southwest 399 459 30,000  Level Boston Center
Sun 09:06:59 PM 40.3381 -72.9819 221° Southwest 399 459 30,000  Level Boston Center
Sun 09:07:59 PM 40.2394 -73.0953 221° Southwest 405 466 30,000  Level Boston Center
Sun 09:10:12 PM 40.0564 -73.3119 222° Southwest 388 447 30,000  Level Washington Center
Sun 09:11:10 PM 39.9889 -73.3844 219° Southwest 393 452 30,000  Level Washington Center
Sun 09:12:11 PM 39.8928 -73.4847 219° Southwest 399 459 30,000  Level Washington Center
Sun 09:13:09 PM 39.8111 -73.5792 222° Southwest 404 465 30,000 -252 Level Washington Center
Sun 09:14:10 PM 39.7253 -73.6733 220° Southwest 399 459 29,500 -694 Descending Washington Center
Sun 09:15:10 PM 39.6411 -73.7644 220° Southwest 399 459 28,600 -942 Descending Washington Center
Sun 09:16:11 PM 39.5550 -73.8608 221° Southwest 399 459 27,600 -1,650 Descending Washington Center
Sun 09:17:10 PM 39.4711 -73.9569 222° Southwest 404 465 25,300 -1,831 Descending Washington Center
Sun 09:18:09 PM 39.3828 -74.0531 220° Southwest 404 465 24,000 -744 Descending Washington Center
Sun 09:19:11 PM 39.3006 -74.1433 220° Southwest 399 459 23,800 -541 Descending Washington Center
Sun 09:20:11 PM 39.2161 -74.2333 220° Southwest 399 459 22,900 -915 Descending Washington Center
Sun 09:21:09 PM 39.1336 -74.3233 220° Southwest 399 459 22,000 -1,008 Descending Washington Center
Sun 09:22:10 PM 39.0492 -74.4156 220° Southwest 399 459 20,900 -1,279 Descending Washington Center
Sun 09:23:11 PM 38.9731 -74.5103 224° Southwest 399 459 19,400 -1,488 Descending Washington Center
Sun 09:24:11 PM 38.9197 -74.6339 241° Southwest 380 437 17,900 -1,424 Descending Washington Center
Sun 09:25:09 PM 38.8958 -74.7594 256° West 367 422 16,600 -1,400 Descending Washington Center
Sun 09:26:11 PM 38.8717 -74.8903 257° West 367 422 15,100 -1,426 Descending Washington Center
Sun 09:27:11 PM 38.8492 -75.0133 257° West 373 429 13,700 -1,475 Descending Washington Center
Sun 09:28:09 PM 38.8269 -75.1358 257° West 368 423 12,200 -1,475 Descending Washington Center
Sun 09:29:09 PM 38.8086 -75.2453 258° West 347 399 10,800 -1,623 Descending Washington Center
Sun 09:30:11 PM 38.8025 -75.3439 265° West 311 358 8,900 -1,918 Descending Washington Center
Sun 09:31:11 PM 38.7964 -75.4397 265° West 285 328 6,900 -1,900 Descending Washington Center
Sun 09:32:11 PM 38.7944 -75.5331 268° West 275 316 5,100 -1,525 Descending Washington Center
Sun 09:33:09 PM 38.7967 -75.6264 272° West 270 311 3,900 -1,059 Descending Washington Center
Sun 09:34:10 PM 38.7986 -75.7194 272° West 270 311 3,000 -446 Descending Washington Center
Sun 09:35:10 PM 38.8047 -75.8128 275° West 270 311 3,000 -50 Level Washington Center
Sun 09:36:11 PM 38.8044 -75.8953 270° West 270 311 2,900 -353 Descending Washington Center
Sun 09:37:09 PM 38.8294 -75.9542 299° West 232 267 2,300 -735 Descending Washington Center
Sun 09:39:27 PM 38.8167 -76.0667 262° West 140 161 500 -783 Descending Potomac TRACON
Sun 09:41:00 PM 38.8000 -76.0667 345° North  Level FlightAware Approximate
Sun 09:48:00 PM 38.8042 -76.0690 345° North  Level Estimated
Sun 09:49:00 PM 38.8000 -76.0667 345° North  Level FlightAware Approximate
Sun 09:50:00 PM 38.8042 -76.0690 345° North  Level Estimated
Sun 09:51:00 PM 38.8000 -76.0667 345° North  Level FlightAware Approximate

Login

Don't have an account? Register now (free) for customized features, flight alerts, and more!